ANDO2: Washita River, OK

Data processed at Wed May 22 2019 23:50


All information presented herein is the property of the government of the United States of America and may be revised or deleted at any time without prior notice.
Dissemination of this information without the expressed written consent of the Public Affairs Office, Tulsa District U.S. Army Corps of Engineers is strictly prohibited.
These data are gathered electronically and, as presented, have not undergone any form of quality control. These data are not guaranteed to be valid or correct.
Go to home page.
Go to station list.
Go to home page.

Upstream stations:

Downstream station:
Previous Day
Next Day
Current Day
    
SHEF ID:       ANDO2     Washita River at Anadarko, OK
STATION TYPE:  
Regulating: Stage =    19.00, Flow =     6257

               PRECIP PRECIP(A)     STAGE  RIV-FLOW  BAT-LOAD
                   in        in        ft       cfs      volt
              Ccp-Rev   Ccp-Rev   Ccp-Rev   Ccp-Rev   Ccp-Rev
(US/Central)
05/22 00:00      0.00      0.00     17.41      4999     12.73
05/22 01:00      0.00      0.00     17.34      4952     12.73
05/22 02:00      0.00      0.00     17.33      4946     12.73
05/22 03:00      0.00      0.00     17.32      4939     12.65
05/22 04:00      0.00      0.00     17.36      4966     12.65
05/22 05:00      0.00      0.00     17.38      4979     12.65
05/22 06:00      0.00      0.00     17.39      4985     12.65
05/22 07:00      0.00      0.00     17.45      5028     12.65
05/22 08:00      0.00      0.00     17.49      5058     13.21
05/22 09:00      0.00      0.00     17.49      5058     13.44
05/22 10:00      0.00      0.00     17.54      5095     13.44
05/22 11:00      0.00      0.00     17.59      5133     13.37
05/22 12:00      0.00      0.00     17.68      5200     13.84
05/22 13:00      0.00      0.00     17.73      5238     14.00
05/22 14:00      0.00      0.00     17.76      5260     13.44
05/22 15:00      0.00      0.00     17.77      5268     13.37
05/22 16:00      0.00      0.00     17.88      5351     13.37
05/22 17:00      0.00      0.00     17.83      5313     13.44
05/22 18:00      0.00      0.00     17.88      5351     13.37
05/22 19:00      0.00      0.00     17.93      5390     13.37
05/22 20:00      0.11      0.09     17.95      5405     13.44
05/22 21:00      0.10      0.09     17.98      5428     13.21
05/22 22:00      0.00      0.00     18.03      5466     12.89
05/22 23:00      0.00      0.00     18.06      5489     12.81